Time;durP1;ratioP1;P1;durP2;ratioP2;P2;SDS_P1;SDS_P2;PMS_P1;PMS_P2;Temp;Humidity;BMP_temperature;BMP_pressure;BME280_temperature;BME280_humidity;BME280_pressure;Samples;Min_cycle;Max_cycle;Signal;HPM_P1;HPM_P2
2024/03/08 00:01:01;;;;;;;38.20;21.05;;;2.10;99.90;;;;;;5010196;28;20443;-70
2024/03/08 00:03:28;;;;;;;38.85;21.00;;;2.00;99.90;;;;;;5018936;28;20417;-70
2024/03/08 00:05:54;;;;;;;40.83;21.92;;;1.90;99.90;;;;;;5012822;28;20422;-70
2024/03/08 00:08:20;;;;;;;39.92;21.65;;;1.70;99.90;;;;;;5010005;28;20375;-70
2024/03/08 00:10:45;;;;;;;49.10;23.48;;;1.60;99.90;;;;;;5009919;28;20026;-70
2024/03/08 00:13:11;;;;;;;41.08;22.42;;;1.60;99.90;;;;;;5010168;28;20022;-70
2024/03/08 00:15:37;;;;;;;40.08;23.00;;;1.50;99.90;;;;;;5009790;28;20073;-71
2024/03/08 00:18:02;;;;;;;44.60;25.25;;;1.40;99.90;;;;;;5011115;28;20470;-71
2024/03/08 00:20:28;;;;;;;40.40;22.48;;;1.30;99.90;;;;;;5008759;28;20022;-71
2024/03/08 00:22:53;;;;;;;42.15;23.23;;;1.30;99.90;;;;;;5010970;28;20026;-70
2024/03/08 00:25:19;;;;;;;39.40;21.40;;;1.20;99.90;;;;;;5010339;28;20504;-71
2024/03/08 00:27:45;;;;;;;40.35;22.23;;;1.20;99.90;;;;;;5010098;28;20085;-70
2024/03/08 00:30:12;;;;;;;42.97;22.08;;;1.10;99.90;;;;;;5007709;28;20030;-70
2024/03/08 00:32:41;;;;;;;42.92;22.75;;;;;;;;;;5010247;28;20018;-70
2024/03/08 00:35:07;;;;;;;44.88;24.38;;;;;;;;;;5010056;28;20422;-70
2024/03/08 00:37:34;;;;;;;44.38;24.10;;;;;;;;;;5009967;28;20088;-70
2024/03/08 00:40:00;;;;;;;42.25;23.15;;;;;;;;;;5010675;28;20022;-70
2024/03/08 00:42:26;;;;;;;41.92;22.50;;;;;;;;;;5013415;28;20092;-70
2024/03/08 00:44:52;;;;;;;44.88;23.65;;;;;;;;;;5013994;28;20093;-70
2024/03/08 00:47:18;;;;;;;45.83;24.15;;;;;;;;;;5014584;28;20018;-70
2024/03/08 00:49:44;;;;;;;45.97;22.98;;;0.70;99.90;;;;;;5013327;28;20014;-70
2024/03/08 00:52:10;;;;;;;47.05;23.38;;;0.70;99.90;;;;;;5014341;28;20028;-71
2024/03/08 00:54:36;;;;;;;47.53;25.38;;;0.60;99.90;;;;;;5012547;28;20085;-69
2024/03/08 00:57:06;;;;;;;46.25;23.92;;;0.50;99.90;;;;;;5011760;28;20053;-70
2024/03/08 00:59:34;;;;;;;43.17;23.40;;;0.50;99.90;;;;;;5012244;28;20347;-69
2024/03/08 01:02:01;;;;;;;46.13;23.98;;;0.40;99.90;;;;;;5013678;28;20021;-69
2024/03/08 01:04:30;;;;;;;46.03;24.42;;;0.30;99.90;;;;;;5023900;28;20407;-69
2024/03/08 01:06:59;;;;;;;45.55;23.27;;;0.30;99.90;;;;;;5013568;28;20029;-70
2024/03/08 01:09:26;;;;;;;51.28;23.55;;;0.20;99.90;;;;;;5012981;28;20030;-69
2024/03/08 01:11:54;;;;;;;43.83;23.85;;;0.20;99.90;;;;;;5013812;28;20022;-69
2024/03/08 01:14:22;;;;;;;50.72;25.30;;;0.10;99.90;;;;;;5013547;28;20041;-69
2024/03/08 01:16:48;;;;;;;46.85;25.10;;;0.10;99.90;;;;;;5012898;28;20018;-68
2024/03/08 01:19:15;;;;;;;49.45;24.75;;;0.00;99.90;;;;;;5013606;28;20440;-70
2024/03/08 01:21:41;;;;;;;46.97;24.30;;;0.00;99.90;;;;;;5012034;28;20062;-69
2024/03/08 01:24:06;;;;;;;59.33;26.38;;;-0.10;99.90;;;;;;5013526;28;20054;-70
2024/03/08 01:26:34;;;;;;;53.47;25.63;;;-0.10;99.90;;;;;;5011925;28;20061;-70
2024/03/08 01:29:00;;;;;;;52.85;25.77;;;-0.10;99.90;;;;;;5013629;28;20117;-69
2024/03/08 01:31:25;;;;;;;51.33;25.42;;;-0.10;99.90;;;;;;5010403;28;20100;-69
2024/03/08 01:33:51;;;;;;;51.90;26.02;;;-0.10;99.90;;;;;;5013229;28;20444;-69
2024/03/08 01:36:17;;;;;;;57.35;26.48;;;-0.10;99.90;;;;;;4995272;28;20025;-70
2024/03/08 01:38:43;;;;;;;53.35;27.17;;;-0.10;99.90;;;;;;5011554;28;20034;-70
2024/03/08 01:41:09;;;;;;;50.25;25.50;;;-0.10;99.90;;;;;;4995133;28;20108;-70
2024/03/08 01:43:34;;;;;;;53.35;27.17;;;-0.10;99.90;;;;;;4995347;28;20049;-70
2024/03/08 01:46:01;;;;;;;57.58;28.30;;;-0.10;99.90;;;;;;4994411;28;20482;-70
2024/03/08 01:48:29;;;;;;;56.05;26.20;;;-0.10;99.90;;;;;;5012724;28;20374;-70
2024/03/08 01:50:58;;;;;;;55.95;26.48;;;-0.20;99.90;;;;;;5011231;28;20577;-70
2024/03/08 01:53:26;;;;;;;52.37;26.73;;;-0.20;99.90;;;;;;5012839;28;20049;-70
2024/03/08 01:55:57;;;;;;;47.97;24.50;;;-0.20;99.90;;;;;;5010855;28;20722;-70
2024/03/08 01:58:23;;;;;;;58.30;27.17;;;-0.30;99.90;;;;;;5012520;28;20028;-70
2024/03/08 02:00:49;;;;;;;53.72;27.80;;;-0.30;99.90;;;;;;5011776;28;20034;-70
2024/03/08 02:03:18;;;;;;;53.50;25.40;;;-0.40;99.90;;;;;;5019584;28;20028;-70
2024/03/08 02:05:44;;;;;;;54.83;25.20;;;-0.40;99.90;;;;;;5014807;28;20053;-70
2024/03/08 02:08:14;;;;;;;58.75;27.83;;;-0.40;99.90;;;;;;5012314;28;20127;-70
2024/03/08 02:10:44;;;;;;;60.00;28.20;;;-0.40;99.90;;;;;;5011410;28;20025;-70
2024/03/08 02:13:10;;;;;;;;;;;-0.40;99.90;;;;;;5012251;28;20025;-70
2024/03/08 02:15:55;;;;;;;61.45;27.15;;;-0.40;99.90;;;;;;5011172;28;20342;-70
2024/03/08 02:18:22;;;;;;;53.67;25.38;;;-0.40;99.90;;;;;;5012676;28;20024;-70
2024/03/08 02:20:52;;;;;;;62.15;28.77;;;-0.40;99.90;;;;;;5011349;28;20121;-70
2024/03/08 02:23:21;;;;;;;60.00;27.67;;;-0.40;99.90;;;;;;5007209;28;20108;-70
2024/03/08 02:25:48;;;;;;;61.08;28.00;;;-0.40;99.90;;;;;;5011033;28;20022;-70
2024/03/08 02:28:14;;;;;;;60.38;27.42;;;-0.50;99.90;;;;;;5012061;28;20038;-70
2024/03/08 02:30:40;;;;;;;55.17;27.50;;;-0.40;99.90;;;;;;5008473;28;20093;-70
2024/03/08 02:33:06;;;;;;;57.13;26.35;;;-0.50;99.90;;;;;;5012093;28;20475;-70
2024/03/08 02:35:35;;;;;;;52.28;26.80;;;-0.50;99.90;;;;;;5010932;28;20022;-70
2024/03/08 02:38:03;;;;;;;52.67;25.80;;;-0.60;99.90;;;;;;5010433;28;20475;-70
2024/03/08 02:40:29;;;;;;;52.65;26.17;;;-0.60;99.90;;;;;;5010460;28;20729;-70
2024/03/08 02:42:55;;;;;;;55.78;27.75;;;-0.60;99.90;;;;;;5012368;28;20021;-70
2024/03/08 02:45:20;;;;;;;58.35;29.33;;;-0.60;99.90;;;;;;5011613;28;20125;-70
2024/03/08 02:47:46;;;;;;;60.95;27.45;;;-0.60;99.90;;;;;;5011041;28;20044;-70
2024/03/08 02:50:16;;;;;;;50.55;25.20;;;-0.60;99.90;;;;;;5011787;28;20028;-70
2024/03/08 02:52:42;;;;;;;59.75;28.10;;;-0.60;99.90;;;;;;5011087;28;20464;-70
2024/03/08 02:55:10;;;;;;;55.30;27.00;;;-0.60;99.90;;;;;;5011877;28;20077;-70
2024/03/08 02:57:36;;;;;;;59.65;27.67;;;-0.60;99.90;;;;;;5007782;28;20517;-70
2024/03/08 03:00:03;;;;;;;52.78;26.48;;;-0.60;99.90;;;;;;5011338;28;20100;-70
2024/03/08 03:02:29;;;;;;;56.28;26.88;;;-0.60;99.90;;;;;;5011033;28;20025;-70
2024/03/08 03:04:55;;;;;;;57.33;27.02;;;-0.60;99.90;;;;;;5021408;28;20026;-71
2024/03/08 03:07:21;;;;;;;59.55;27.55;;;-0.60;99.90;;;;;;5011497;28;20048;-70
2024/03/08 03:09:47;;;;;;;58.08;26.83;;;-0.40;99.90;;;;;;5010814;28;20140;-70
2024/03/08 03:12:13;;;;;;;54.35;24.35;;;-0.40;99.90;;;;;;5011144;28;20029;-70
2024/03/08 03:14:39;;;;;;;53.35;25.15;;;-0.30;99.90;;;;;;5009921;28;20083;-70
2024/03/08 03:17:05;;;;;;;48.22;24.10;;;-0.30;99.90;;;;;;5011542;28;20026;-71
2024/03/08 03:19:31;;;;;;;49.60;24.25;;;-0.10;99.90;;;;;;5010575;28;20057;-70
2024/03/08 03:21:57;;;;;;;44.55;23.50;;;0.10;99.90;;;;;;5014181;28;20037;-69
2024/03/08 03:24:23;;;;;;;40.80;22.42;;;0.20;99.90;;;;;;5021560;28;20029;-70
2024/03/08 03:26:49;;;;;;;42.65;21.67;;;0.40;99.90;;;;;;5020859;28;20014;-70
2024/03/08 03:29:16;;;;;;;41.30;22.48;;;0.60;99.90;;;;;;5017212;28;20026;-70
2024/03/08 03:31:45;;;;;;;41.83;22.48;;;0.70;99.90;;;;;;5008510;28;20099;-70
2024/03/08 03:34:11;;;;;;;41.42;20.27;;;0.70;99.90;;;;;;5011795;28;20033;-70
2024/03/08 03:36:42;;;;;;;37.30;20.15;;;0.80;99.90;;;;;;5010004;28;20016;-70
2024/03/08 03:39:12;;;;;;;38.10;20.05;;;0.80;99.90;;;;;;5011273;28;20022;-70
2024/03/08 03:41:38;;;;;;;39.88;20.85;;;0.90;99.90;;;;;;5009996;28;20057;-70
2024/03/08 03:44:06;;;;;;;39.97;21.30;;;0.80;99.90;;;;;;5014064;28;20022;-71
2024/03/08 03:46:32;;;;;;;38.08;20.70;;;0.70;99.90;;;;;;5014275;28;20033;-69
2024/03/08 03:48:58;;;;;;;38.75;19.80;;;0.70;99.90;;;;;;5014538;28;20069;-71
2024/03/08 03:51:24;;;;;;;41.80;20.85;;;0.70;99.90;;;;;;5014460;28;20363;-70
2024/03/08 03:53:50;;;;;;;40.22;20.70;;;0.70;99.90;;;;;;5013789;28;20077;-70
2024/03/08 03:56:15;;;;;;;37.60;21.20;;;0.70;99.90;;;;;;5008810;28;20034;-70
2024/03/08 03:58:41;;;;;;;38.95;21.13;;;0.70;99.90;;;;;;5010615;28;20026;-70
2024/03/08 04:01:06;;;;;;;41.88;21.45;;;0.70;99.90;;;;;;5010928;28;20022;-70
2024/03/08 04:03:32;;;;;;;39.58;21.23;;;0.70;99.90;;;;;;5010564;28;20014;-70
2024/03/08 04:05:57;;;;;;;39.88;21.08;;;0.80;99.90;;;;;;5008907;28;20051;-70
2024/03/08 04:08:26;;;;;;;40.20;21.55;;;0.80;99.90;;;;;;5001522;28;20109;-70
2024/03/08 04:10:51;;;;;;;37.58;20.90;;;0.70;99.90;;;;;;5010609;28;20108;-70
2024/03/08 04:13:17;;;;;;;35.83;20.42;;;0.70;99.90;;;;;;5010733;28;20152;-70
2024/03/08 04:15:47;;;;;;;41.53;21.48;;;0.70;99.90;;;;;;5013343;28;20109;-70
2024/03/08 04:18:13;;;;;;;38.92;21.88;;;0.70;99.90;;;;;;5014247;28;20029;-70
2024/03/08 04:20:40;;;;;;;37.67;20.63;;;0.70;99.90;;;;;;5013472;28;20029;-70
2024/03/08 04:23:06;;;;;;;35.22;20.50;;;0.80;99.90;;;;;;5014345;28;20344;-70
2024/03/08 04:25:31;;;;;;;38.78;21.67;;;0.80;99.90;;;;;;5013822;28;20084;-70
2024/03/08 04:27:57;;;;;;;39.47;20.60;;;0.90;99.90;;;;;;5014440;28;20459;-70
2024/03/08 04:30:24;;;;;;;36.80;21.02;;;0.80;99.90;;;;;;5010532;28;20018;-69
2024/03/08 04:32:49;;;;;;;39.22;21.90;;;0.80;99.90;;;;;;5014520;28;20021;-71
2024/03/08 04:35:15;;;;;;;38.63;21.10;;;0.90;99.90;;;;;;5013871;28;20387;-70
2024/03/08 04:37:41;;;;;;;36.97;21.13;;;0.80;99.90;;;;;;5013794;28;20041;-71
2024/03/08 04:40:07;;;;;;;37.95;21.77;;;0.80;99.90;;;;;;5013271;28;20488;-70
2024/03/08 04:42:33;;;;;;;39.70;20.70;;;0.80;99.90;;;;;;5013488;28;20081;-70
2024/03/08 04:44:59;;;;;;;42.40;22.70;;;0.70;99.90;;;;;;5014230;28;20028;-70
2024/03/08 04:47:25;;;;;;;41.33;22.05;;;0.60;99.90;;;;;;5014219;28;20428;-70
2024/03/08 04:49:50;;;;;;;42.63;22.50;;;0.60;99.90;;;;;;5012868;28;20381;-70
2024/03/08 04:52:16;;;;;;;42.58;22.13;;;0.60;99.90;;;;;;5014278;28;20375;-70
2024/03/08 04:54:43;;;;;;;39.08;20.77;;;0.50;99.90;;;;;;5012307;28;20498;-70
2024/03/08 04:57:08;;;;;;;43.65;23.45;;;0.50;99.90;;;;;;5013742;28;20026;-70
2024/03/08 04:59:34;;;;;;;39.45;21.67;;;0.40;99.90;;;;;;5012688;28;20040;-70
2024/03/08 05:02:00;;;;;;;37.55;21.52;;;0.40;99.90;;;;;;5014168;28;20026;-70
2024/03/08 05:04:26;;;;;;;41.97;22.33;;;0.30;99.90;;;;;;5011493;28;20433;-69
2024/03/08 05:06:51;;;;;;;43.88;22.92;;;0.30;99.90;;;;;;5013684;28;20017;-70
2024/03/08 05:09:18;;;;;;;45.70;22.67;;;0.40;99.90;;;;;;5014014;28;20041;-70
2024/03/08 05:11:45;;;;;;;42.83;22.83;;;0.30;99.90;;;;;;5012897;28;20156;-70
2024/03/08 05:14:12;;;;;;;43.53;21.75;;;0.40;99.90;;;;;;4995719;28;20062;-70
2024/03/08 05:16:38;;;;;;;40.75;22.67;;;0.40;99.90;;;;;;5012325;28;20348;-70
2024/03/08 05:19:03;;;;;;;45.45;22.45;;;0.40;99.90;;;;;;5013718;28;20029;-70
2024/03/08 05:21:29;;;;;;;43.10;24.30;;;0.40;99.90;;;;;;5011817;28;20149;-70
2024/03/08 05:23:55;;;;;;;44.63;23.58;;;0.40;99.90;;;;;;5014118;28;20049;-70
2024/03/08 05:26:22;;;;;;;43.22;23.40;;;0.30;99.90;;;;;;5011847;28;20029;-70
2024/03/08 05:28:48;;;;;;;47.38;24.20;;;0.30;99.90;;;;;;5012638;28;20029;-70
2024/03/08 05:31:23;;;;;;;47.60;23.27;;;0.30;99.90;;;;;;5011133;28;20406;-70
2024/03/08 05:33:49;;;;;;;42.17;21.85;;;0.30;99.90;;;;;;5013335;28;20018;-70
2024/03/08 05:36:16;;;;;;;41.63;22.25;;;0.40;99.90;;;;;;5012814;28;20033;-70
2024/03/08 05:38:43;;;;;;;40.95;22.45;;;0.40;99.90;;;;;;5012675;28;20034;-70
2024/03/08 05:41:11;;;;;;;44.85;23.35;;;0.50;99.90;;;;;;5013416;28;20022;-70
2024/03/08 05:43:38;;;;;;;43.47;22.80;;;0.50;99.90;;;;;;5018611;28;20097;-69
2024/03/08 05:46:07;;;;;;;45.53;23.92;;;0.50;99.90;;;;;;5012645;28;20065;-69
2024/03/08 05:48:32;;;;;;;43.72;23.30;;;0.50;99.90;;;;;;5012355;28;20438;-69
2024/03/08 05:51:00;;;;;;;45.45;23.63;;;0.40;99.90;;;;;;5012387;28;20144;-69
2024/03/08 05:53:26;;;;;;;40.20;22.85;;;0.40;99.90;;;;;;5012041;28;20104;-69
2024/03/08 05:55:52;;;;;;;46.33;25.80;;;0.30;99.90;;;;;;5013014;28;20061;-69
2024/03/08 05:58:17;;;;;;;47.03;24.27;;;0.30;99.90;;;;;;5012362;28;20058;-70
2024/03/08 06:00:46;;;;;;;44.22;23.98;;;0.30;99.90;;;;;;5011802;28;20022;-69
2024/03/08 06:03:11;;;;;;;47.05;24.33;;;0.40;99.90;;;;;;5013375;28;20018;-69
2024/03/08 06:05:40;;;;;;;45.83;24.88;;;0.40;99.90;;;;;;5011578;28;20137;-69
2024/03/08 06:08:07;;;;;;;49.72;24.38;;;0.40;99.90;;;;;;5012821;28;20046;-69
2024/03/08 06:10:33;;;;;;;44.42;23.02;;;0.40;99.90;;;;;;4993950;28;20014;-70
2024/03/08 06:12:59;;;;;;;48.67;23.92;;;0.30;99.90;;;;;;5012743;28;20026;-70
2024/03/08 06:15:25;;;;;;;46.65;24.92;;;0.30;99.90;;;;;;5011528;28;20363;-73
2024/03/08 06:17:52;;;;;;;48.42;25.52;;;0.30;99.90;;;;;;5012606;28;20030;-70
2024/03/08 06:20:18;;;;;;;45.42;24.23;;;0.40;99.90;;;;;;4993730;28;20041;-70
2024/03/08 06:22:44;;;;;;;43.80;23.55;;;0.40;99.90;;;;;;5011293;28;20022;-71
2024/03/08 06:25:14;;;;;;;40.60;23.40;;;0.40;99.90;;;;;;4998412;28;20105;-71
2024/03/08 06:27:42;;;;;;;43.38;22.63;;;0.50;99.90;;;;;;4993895;28;20033;-71
2024/03/08 06:30:09;;;;;;;48.17;24.98;;;0.60;99.90;;;;;;5009811;28;20030;-71
2024/03/08 06:32:35;;;;;;;47.58;25.20;;;0.70;99.90;;;;;;5011852;28;20026;-69
2024/03/08 06:35:09;;;;;;;50.08;24.70;;;0.80;99.90;;;;;;5011816;28;20025;-67
2024/03/08 06:37:35;;;;;;;43.40;23.80;;;0.80;99.90;;;;;;5012032;28;20495;-69
2024/03/08 06:40:01;;;;;;;44.58;23.45;;;0.70;99.90;;;;;;5008917;28;20097;-69
2024/03/08 06:42:28;;;;;;;44.25;24.48;;;0.80;99.90;;;;;;5011360;28;20466;-68
2024/03/08 06:44:55;;;;;;;48.13;26.02;;;0.80;99.90;;;;;;5011582;28;20018;-68
2024/03/08 06:47:22;;;;;;;46.95;23.88;;;0.90;99.90;;;;;;5011800;28;20014;-68
2024/03/08 06:49:49;;;;;;;42.08;23.60;;;1.00;99.90;;;;;;5011902;28;20030;-70
2024/03/08 06:52:15;;;;;;;44.95;24.77;;;1.00;99.90;;;;;;5011393;28;20021;-70
2024/03/08 06:54:43;;;;;;;46.15;24.70;;;1.10;99.90;;;;;;5009965;28;20459;-69
2024/03/08 06:57:10;;;;;;;45.05;23.38;;;1.20;99.90;;;;;;5010965;28;20018;-69
2024/03/08 06:59:36;;;;;;;38.33;22.02;;;1.40;99.90;;;;;;5010379;28;20073;-69
2024/03/08 07:02:03;;;;;;;41.30;23.17;;;1.50;99.90;;;;;;5011719;28;20471;-69
2024/03/08 07:04:29;;;;;;;38.95;21.88;;;1.60;99.90;;;;;;5009408;28;20022;-70
2024/03/08 07:06:58;;;;;;;40.47;22.83;;;1.80;99.90;;;;;;5011742;28;20073;-70
2024/03/08 07:09:24;;;;;;;38.67;22.48;;;1.80;99.90;;;;;;5010827;28;20033;-69
2024/03/08 07:11:54;;;;;;;40.58;22.70;;;;;;;;;;5010942;28;20068;-68
2024/03/08 07:14:21;;;;;;;;;;;;;;;;;;5011719;28;20068;-67
2024/03/08 07:16:47;;;;;;;38.50;21.52;;;;;;;;;;5009954;28;19917;-68
2024/03/08 07:19:13;;;;;;;42.33;22.23;;;;;;;;;;5011029;28;20281;-68
2024/03/08 07:21:39;;;;;;;39.47;20.63;;;;;;;;;;5009565;28;20021;-69
2024/03/08 07:26:43;;;;;;;37.40;21.10;;;2.80;99.90;;;;;;5010254;28;20022;-69
2024/03/08 07:29:09;;;;;;;34.58;21.40;;;2.90;99.90;;;;;;4993609;28;20355;-74
2024/03/08 07:31:50;;;;;;;37.15;21.48;;;2.90;99.90;;;;;;5008583;28;20084;-73
2024/03/08 07:34:16;;;;;;;39.25;20.67;;;3.00;99.90;;;;;;5011128;28;20241;-74
2024/03/08 07:36:42;;;;;;;36.72;20.58;;;3.60;99.90;;;;;;5010101;28;20359;-74
2024/03/08 07:39:14;;;;;;;29.80;18.88;;;3.10;99.90;;;;;;5010856;28;20088;-74
2024/03/08 07:41:40;;;;;;;34.80;20.33;;;3.10;99.90;;;;;;5008893;28;20352;-73
2024/03/08 07:44:07;;;;;;;32.55;20.27;;;3.40;99.90;;;;;;5009652;28;20103;-72
2024/03/08 07:46:34;;;;;;;36.70;21.63;;;3.50;99.90;;;;;;5009992;28;20022;-72
2024/03/08 07:49:00;;;;;;;35.88;20.17;;;;;;;;;;5007661;28;20133;-69
2024/03/08 07:51:26;;;;;;;32.55;19.75;;;;;;;;;;5009921;28;20041;-69
2024/03/08 07:53:52;;;;;;;31.42;18.92;;;;;;;;;;5010993;28;20076;-69
2024/03/08 07:56:19;;;;;;;30.52;18.85;;;;;;;;;;5010072;28;20070;-68
2024/03/08 07:58:45;;;;;;;33.65;20.10;;;;;;;;;;5010091;28;20037;-68
2024/03/08 08:01:20;;;;;;;34.15;19.13;;;;;;;;;;5010385;28;20026;-68
2024/03/08 08:03:48;;;;;;;32.90;19.48;;;;;;;;;;5010578;28;20030;-69
2024/03/08 08:06:15;;;;;;;31.42;19.73;;;;;;;;;;5008917;28;20026;-68
2024/03/08 08:08:44;;;;;;;31.90;18.65;;;;;;;;;;5010431;28;20360;-68
2024/03/08 08:11:15;;;;;;;30.85;18.35;;;;;;;;;;5010581;28;20033;-69
2024/03/08 08:13:43;;;;;;;29.73;18.58;;;;;;;;;;5001388;28;20021;-68
2024/03/08 08:16:09;;;;;;;31.35;18.38;;;;;;;;;;5009589;28;20014;-68
2024/03/08 08:18:35;;;;;;;31.17;18.20;;;;;;;;;;5009481;28;20021;-69
2024/03/08 08:21:01;;;;;;;28.90;18.42;;;;;;;;;;5009517;28;20030;-68
2024/03/08 08:23:29;;;;;;;27.77;17.85;;;;;;;;;;5007478;28;20407;-68
2024/03/08 08:25:55;;;;;;;32.28;19.05;;;;;;;;;;5010202;28;20072;-68
2024/03/08 08:28:21;;;;;;;30.50;18.35;;;;;;;;;;5010404;28;20414;-68
2024/03/08 08:30:48;;;;;;;32.70;18.17;;;;;;;;;;5007452;28;20459;-68
2024/03/08 08:33:15;;;;;;;33.53;20.42;;;;;;;;;;5010186;28;20036;-69
2024/03/08 08:35:41;;;;;;;29.60;18.55;;;;;;;;;;5009597;28;20053;-69
2024/03/08 08:38:10;;;;;;;33.78;18.13;;;;;;;;;;5010170;28;20033;-68
2024/03/08 08:40:36;;;;;;;32.20;19.30;;;;;;;;;;5008954;28;20014;-68
2024/03/08 08:43:06;;;;;;;31.55;18.42;;;;;;;;;;5008265;28;20182;-68
2024/03/08 08:45:33;;;;;;;30.65;18.63;;;;;;;;;;4992749;28;20026;-69
2024/03/08 08:47:59;;;;;;;31.98;18.70;;;;;;;;;;5009916;28;20022;-69
2024/03/08 08:50:27;;;;;;;32.30;19.23;;;;;;;;;;5009354;28;20176;-68
2024/03/08 08:52:53;;;;;;;31.15;18.10;;;;;;;;;;5006952;28;20060;-68
2024/03/08 08:55:21;;;;;;;30.23;18.48;;;;;;;;;;5015005;28;20447;-69
2024/03/08 08:57:47;;;;;;;31.10;18.05;;;;;;;;;;5009609;28;20037;-68
2024/03/08 09:00:17;;;;;;;29.02;18.05;;;;;;;;;;5010896;28;20026;-68
2024/03/08 09:02:43;;;;;;;32.07;18.83;;;;;;;;;;5009299;28;20057;-68
2024/03/08 09:05:09;;;;;;;33.78;19.20;;;;;;;;;;5005681;28;20030;-69
2024/03/08 09:07:35;;;;;;;32.38;18.02;;;;;;;;;;5013034;28;20022;-68
2024/03/08 09:10:02;;;;;;;28.95;17.90;;;;;;;;;;5012737;28;20486;-68
2024/03/08 09:12:28;;;;;;;29.10;17.17;;;;;;;;;;5012684;28;20026;-68
2024/03/08 09:14:54;;;;;;;30.15;18.75;;;;;;;;;;5013078;28;20010;-68
2024/03/08 09:17:20;;;;;;;32.65;18.55;;;;;;;;;;5013136;28;20419;-69
2024/03/08 09:19:49;;;;;;;27.67;18.05;;;;;;;;;;5015108;28;20033;-68
2024/03/08 09:22:15;;;;;;;32.05;18.05;;;;;;;;;;5015437;28;20026;-68
2024/03/08 09:24:43;;;;;;;30.35;17.98;;;;;;;;;;5012652;28;20107;-68
2024/03/08 09:27:09;;;;;;;31.77;17.85;;;;;;;;;;5013380;28;20390;-68
2024/03/08 09:29:36;;;;;;;32.15;18.42;;;;;;;;;;5012119;28;20022;-68
2024/03/08 09:32:03;;;;;;;31.10;17.23;;;;;;;;;;5013112;28;20021;-68
2024/03/08 09:34:28;;;;;;;29.95;18.27;;;5.40;99.90;;;;;;5003825;28;20479;-68
2024/03/08 09:36:54;;;;;;;27.27;16.77;;;5.40;99.90;;;;;;5012650;28;20064;-69
2024/03/08 09:39:20;;;;;;;31.50;17.65;;;5.40;99.90;;;;;;5006608;28;20027;-68
2024/03/08 09:41:50;;;;;;;31.58;19.08;;;5.40;99.90;;;;;;5012007;28;20033;-68
2024/03/08 09:44:16;;;;;;;27.83;17.20;;;5.40;99.90;;;;;;5010765;28;20125;-68
2024/03/08 09:46:42;;;;;;;29.48;18.15;;;5.40;99.90;;;;;;4991626;28;20414;-68
2024/03/08 09:49:11;;;;;;;27.38;17.17;;;5.40;99.90;;;;;;5013000;28;20050;-68
2024/03/08 09:51:40;;;;;;;28.05;16.75;;;5.50;99.90;;;;;;5018950;28;20394;-68
2024/03/08 09:54:05;;;;;;;33.33;17.80;;;5.50;99.90;;;;;;5012446;28;20094;-68
2024/03/08 09:56:36;;;;;;;26.08;16.98;;;5.60;99.90;;;;;;5010515;28;20390;-68
2024/03/08 10:02:02;;;;;;;30.13;17.17;;;5.80;99.90;;;;;;4979027;28;19905;-69
2024/03/08 10:04:30;;;;;;;29.92;16.77;;;6.00;99.90;;;;;;5011318;28;20029;-68
2024/03/08 10:06:59;;;;;;;26.30;17.33;;;6.00;99.90;;;;;;5012440;28;20038;-66
2024/03/08 10:09:27;;;;;;;29.25;16.98;;;6.10;99.90;;;;;;5011360;28;20025;-68
2024/03/08 10:11:59;;;;;;;27.58;17.52;;;6.20;99.90;;;;;;5011663;28;20080;-68
2024/03/08 10:14:26;;;;;;;26.45;16.60;;;6.30;99.90;;;;;;5011487;28;20474;-69
2024/03/08 10:16:53;;;;;;;28.00;17.17;;;;;;;;;;5011891;28;20137;-68
2024/03/08 10:19:18;;;;;;;25.67;16.95;;;6.60;99.90;;;;;;4994557;28;20022;-68
2024/03/08 10:21:54;;;;;;;25.02;15.75;;;6.60;99.90;;;;;;5010199;28;20112;-69
2024/03/08 10:24:20;;;;;;;28.15;16.35;;;6.70;99.90;;;;;;5012170;28;20033;-68
2024/03/08 10:26:45;;;;;;;25.67;16.50;;;6.90;99.90;;;;;;5010788;28;20021;-68
2024/03/08 10:29:15;;;;;;;28.92;17.30;;;6.80;99.90;;;;;;5011329;28;20036;-69
2024/03/08 10:31:44;;;;;;;26.40;16.02;;;6.90;99.90;;;;;;5010165;28;20030;-68
2024/03/08 10:34:10;;;;;;;26.98;16.70;;;6.90;99.90;;;;;;5012062;28;20022;-68
2024/03/08 10:36:37;;;;;;;25.63;15.75;;;6.80;99.90;;;;;;5010466;28;20018;-69
2024/03/08 10:39:19;;;;;;;27.33;15.52;;;6.90;99.90;;;;;;5009389;28;20030;-69
2024/03/08 10:41:52;;;;;;;24.98;15.73;;;7.10;99.90;;;;;;5010796;28;20025;-69
2024/03/08 10:44:31;;;;;;;23.13;15.00;;;;;;;;;;5010148;28;20034;-68
2024/03/08 10:47:09;;;;;;;25.27;15.88;;;;;;;;;;5011330;28;20075;-67
2024/03/08 10:49:39;;;;;;;25.95;14.98;;;;;;;;;;5011734;28;20091;-67
2024/03/08 10:52:08;;;;;;;22.27;15.18;;;;;;;;;;5012346;28;20025;-69
2024/03/08 10:54:34;;;;;;;25.70;16.40;;;;;;;;;;5009446;28;20037;-68
2024/03/08 10:57:02;;;;;;;27.60;16.00;;;;;;;;;;5006136;28;20044;-68
2024/03/08 10:59:29;;;;;;;25.60;16.25;;;;;;;;;;5010399;28;20163;-68
2024/03/08 11:01:55;;;;;;;26.27;14.95;;;;;;;;;;4994402;28;20026;-68
2024/03/08 11:04:23;;;;;;;27.33;16.15;;;;;;;;;;5010074;28;20022;-68
2024/03/08 11:06:52;;;;;;;26.02;15.90;;;;;;;;;;5011042;28;20022;-68
2024/03/08 11:09:29;;;;;;;25.42;16.10;;;;;;;;;;5010715;28;20034;-67
2024/03/08 11:12:15;;;;;;;23.25;15.57;;;;;;;;;;5010945;28;20088;-67
2024/03/08 11:14:46;;;;;;;27.00;16.83;;;;;;;;;;5007531;28;20029;-68
2024/03/08 11:17:13;;;;;;;28.83;16.45;;;;;;;;;;5011152;28;20078;-68
2024/03/08 11:19:46;;;;;;;27.42;17.20;;;;;;;;;;5009618;28;20036;-68
2024/03/08 11:22:21;;;;;;;25.33;16.25;;;;;;;;;;5009348;28;20017;-68
2024/03/08 11:24:47;;;;;;;27.20;16.50;;;;;;;;;;5003082;28;20018;-67
2024/03/08 11:27:13;;;;;;;26.73;16.50;;;;;;;;;;5017354;28;20048;-68
2024/03/08 11:29:39;;;;;;;25.27;16.05;;;;;;;;;;5011021;28;20029;-67
2024/03/08 11:32:08;;;;;;;24.02;15.57;;;;;;;;;;5011193;28;20021;-67
2024/03/08 11:34:34;;;;;;;29.45;17.77;;;;;;;;;;5010058;28;20017;-67
2024/03/08 11:37:00;;;;;;;27.48;16.65;;;;;;;;;;5010623;28;20026;-67
2024/03/08 11:39:28;;;;;;;26.50;16.05;;;;;;;;;;5009751;28;20053;-67
2024/03/08 11:41:55;;;;;;;27.00;15.82;;;;;;;;;;5004713;28;20455;-67
2024/03/08 11:44:21;;;;;;;26.80;16.73;;;;;;;;;;5008387;28;20029;-67
2024/03/08 11:46:47;;;;;;;27.83;16.80;;;;;;;;;;5009661;28;20045;-67
2024/03/08 11:49:14;;;;;;;26.40;16.77;;;;;;;;;;5007655;28;20394;-67
2024/03/08 11:51:41;;;;;;;24.88;16.25;;;;;;;;;;5009628;28;20026;-67
2024/03/08 11:54:07;;;;;;;24.75;15.63;;;;;;;;;;5010628;28;20493;-67
2024/03/08 11:56:34;;;;;;;27.02;17.38;;;;;;;;;;5009388;28;20030;-67
2024/03/08 11:59:01;;;;;;;27.20;16.55;;;;;;;;;;5010631;28;20037;-67
2024/03/08 12:01:27;;;;;;;29.55;16.42;;;;;;;;;;5009597;28;20014;-67
2024/03/08 12:03:58;;;;;;;27.58;17.17;;;;;;;;;;5010675;28;20032;-67
2024/03/08 12:06:25;;;;;;;25.40;16.38;;;;;;;;;;5007988;28;20022;-69
2024/03/08 12:08:51;;;;;;;23.92;15.38;;;9.90;99.90;;;;;;5010656;28;20022;-69
2024/03/08 12:11:23;;;;;;;29.65;16.90;;;10.00;99.90;;;;;;5010011;28;20437;-67
2024/03/08 12:13:53;;;;;;;25.38;16.83;;;10.20;99.90;;;;;;5009866;28;20029;-67
2024/03/08 12:16:21;;;;;;;;;;;10.30;99.90;;;;;;4997613;28;20041;-68
2024/03/08 12:18:48;;;;;;;27.25;16.77;;;10.60;99.90;;;;;;5009600;28;19913;-68
2024/03/08 12:21:17;;;;;;;28.08;17.70;;;10.80;99.90;;;;;;5009379;28;20537;-68
2024/03/08 12:23:44;;;;;;;26.65;17.15;;;11.00;99.90;;;;;;5009944;28;20316;-68
2024/03/08 12:26:15;;;;;;;26.65;18.27;;;;;;;;;;5009733;28;20048;-68
2024/03/08 12:28:41;;;;;;;26.40;18.55;;;;;;;;;;5005625;28;20022;-69
2024/03/08 12:31:11;;;;;;;27.10;17.05;;;;;;;;;;5007756;28;20110;-68
2024/03/08 12:33:38;;;;;;;26.45;16.65;;;;;;;;;;5001501;28;20030;-69
2024/03/08 12:36:07;;;;;;;27.55;18.60;;;;;;;;;;5012324;28;20097;-69
2024/03/08 12:38:34;;;;;;;26.10;16.42;;;;;;;;;;5011628;28;20030;-68
2024/03/08 12:41:01;;;;;;;26.98;17.92;;;;;;;;;;5013776;28;20132;-69
2024/03/08 12:43:30;;;;;;;24.15;16.55;;;;;;;;;;5011373;28;20072;-67
2024/03/08 12:45:56;;;;;;;25.63;17.70;;;;;;;;;;5013548;28;20022;-67
2024/03/08 12:48:22;;;;;;;26.90;16.80;;;;;;;;;;5011476;28;20367;-67
2024/03/08 12:50:50;;;;;;;26.58;18.17;;;13.40;99.90;;;;;;5013422;28;20017;-69
2024/03/08 12:53:16;;;;;;;26.88;18.20;;;13.50;99.90;;;;;;5013483;28;20117;-68
2024/03/08 12:55:42;;;;;;;26.92;18.17;;;13.80;99.90;;;;;;5010935;28;20607;-68
2024/03/08 12:58:07;;;;;;;26.40;19.10;;;14.00;99.90;;;;;;5013695;28;20028;-68
2024/03/08 13:00:36;;;;;;;28.52;17.83;;;14.20;99.90;;;;;;5022651;28;20025;-67
2024/03/08 13:03:02;;;;;;;25.30;17.48;;;14.30;99.90;;;;;;5012981;28;20021;-67
2024/03/08 13:05:31;;;;;;;23.77;16.60;;;;;;;;;;5012551;28;20018;-67
2024/03/08 13:07:56;;;;;;;29.73;18.25;;;14.80;99.90;;;;;;5014051;28;20478;-67
2024/03/08 13:10:23;;;;;;;23.92;16.48;;;15.10;94.20;;;;;;5007431;28;20125;-67